WAT6557 BKPR-EDDS
Flight info
| Callsign | WAT6557 |
|---|---|
| Flight time | N/A |
| Altitude | 36000 |
| Route | KUKAD1D KUKAD DCT RETRA DCT GACMO DCT DEVUL DCT NAKUM DCT TITIG L173 MAH/N0428F240 L173 DODIL T127 TEKSI TEKSI5A |
| Aircraft | A319/M-SDE3FGHIRWY/LB1 |
Departure
| Time | 2026-04-28 17:10 |
|---|---|
| Airport | Priština Adem Jashari International Airport (BKPR) |
Arrival
| Time | N/A |
|---|---|
| Airport | Stuttgart Airport (EDDS) |
| Time | Latitude | Longitude | Altitude | Speed | Heading |
|---|---|---|---|---|---|
| 2026-04-28 16:46 | 42.57404 | 21.03129 | 1789 ft | 0 kts | 265° |
| 2026-04-28 17:02 | 42.57406 | 21.03157 | 1790 ft | 4 kts | 256° |
| 2026-04-28 17:02 | 42.57416 | 21.03191 | 1790 ft | 4 kts | 235° |
| 2026-04-28 17:03 | 42.57453 | 21.03222 | 1791 ft | 0 kts | 176° |
| 2026-04-28 17:05 | 42.57451 | 21.03222 | 1791 ft | 1 kts | 175° |
| 2026-04-28 17:05 | 42.57432 | 21.03224 | 1794 ft | 4 kts | 175° |
| 2026-04-28 17:06 | 42.57348 | 21.03245 | 1794 ft | 8 kts | 158° |
| 2026-04-28 17:06 | 42.57315 | 21.03299 | 1797 ft | 7 kts | 108° |
| 2026-04-28 17:06 | 42.57219 | 21.03355 | 1796 ft | 14 kts | 175° |
| 2026-04-28 17:07 | 42.57099 | 21.03368 | 1799 ft | 20 kts | 175° |
| 2026-04-28 17:07 | 42.56953 | 21.03383 | 1796 ft | 21 kts | 175° |
| 2026-04-28 17:07 | 42.56798 | 21.03399 | 1795 ft | 23 kts | 175° |
| 2026-04-28 17:07 | 42.56641 | 21.03414 | 1793 ft | 22 kts | 175° |
| 2026-04-28 17:08 | 42.56488 | 21.03430 | 1795 ft | 22 kts | 175° |
| 2026-04-28 17:08 | 42.56367 | 21.03445 | 1795 ft | 12 kts | 159° |
| 2026-04-28 17:08 | 42.56321 | 21.03529 | 1796 ft | 12 kts | 115° |
| 2026-04-28 17:08 | 42.56295 | 21.03638 | 1799 ft | 12 kts | 90° |
| 2026-04-28 17:09 | 42.56352 | 21.03688 | 1799 ft | 9 kts | 355° |
| 2026-04-28 17:09 | 42.56360 | 21.03687 | 1799 ft | 0 kts | 356° |
| 2026-04-28 17:09 | 42.56528 | 21.03670 | 1797 ft | 60 kts | 355° |
| 2026-04-28 17:09 | 42.57164 | 21.03603 | 1805 ft | 121 kts | 355° |
| 2026-04-28 17:10 | 42.58183 | 21.03497 | 1799 ft | 170 kts | 355° |
| 2026-04-28 17:10 | 42.59349 | 21.03380 | 2378 ft | 164 kts | 355° |
| 2026-04-28 17:10 | 42.60494 | 21.03285 | 2944 ft | 164 kts | 356° |
| 2026-04-28 17:10 | 42.61638 | 21.03188 | 3491 ft | 168 kts | 355° |
| 2026-04-28 17:11 | 42.62861 | 21.03054 | 3826 ft | 184 kts | 354° |
| 2026-04-28 17:11 | 42.64112 | 21.02543 | 4212 ft | 195 kts | 321° |
| 2026-04-28 17:11 | 42.65002 | 21.01118 | 4689 ft | 202 kts | 303° |
| 2026-04-28 17:11 | 42.65790 | 20.99448 | 5019 ft | 221 kts | 301° |
| 2026-04-28 17:12 | 42.66649 | 20.97609 | 5320 ft | 241 kts | 302° |
| 2026-04-28 17:12 | 42.67590 | 20.95656 | 5950 ft | 251 kts | 303° |
| 2026-04-28 17:12 | 42.68554 | 20.93658 | 6781 ft | 255 kts | 298° |
| 2026-04-28 17:12 | 42.68984 | 20.91335 | 7561 ft | 258 kts | 267° |
| 2026-04-28 17:13 | 42.68492 | 20.88974 | 8157 ft | 271 kts | 237° |
| 2026-04-28 17:13 | 42.67122 | 20.87162 | 8749 ft | 282 kts | 216° |
| 2026-04-28 17:13 | 42.65530 | 20.85571 | 9535 ft | 286 kts | 216° |
| 2026-04-28 17:13 | 42.63914 | 20.83958 | 10331 ft | 290 kts | 216° |
| 2026-04-28 17:14 | 42.62283 | 20.82325 | 11122 ft | 293 kts | 216° |
| 2026-04-28 17:14 | 42.60635 | 20.80665 | 11873 ft | 297 kts | 217° |
| 2026-04-28 17:14 | 42.58970 | 20.78978 | 12625 ft | 300 kts | 217° |
| 2026-04-28 17:14 | 42.57289 | 20.77272 | 13351 ft | 304 kts | 217° |
| 2026-04-28 17:15 | 42.55586 | 20.75549 | 14058 ft | 307 kts | 217° |
| 2026-04-28 17:15 | 42.53863 | 20.73808 | 14749 ft | 310 kts | 217° |
| 2026-04-28 17:15 | 42.52119 | 20.72047 | 15426 ft | 314 kts | 217° |
| 2026-04-28 17:15 | 42.50422 | 20.70173 | 16072 ft | 317 kts | 225° |
| 2026-04-28 17:16 | 42.49050 | 20.67809 | 16643 ft | 324 kts | 238° |
| 2026-04-28 17:16 | 42.48082 | 20.64956 | 16771 ft | 344 kts | 250° |
| 2026-04-28 17:16 | 42.47246 | 20.61821 | 16902 ft | 363 kts | 250° |
| 2026-04-28 17:16 | 42.46362 | 20.58530 | 17029 ft | 381 kts | 250° |
| 2026-04-28 17:17 | 42.45431 | 20.55101 | 17326 ft | 392 kts | 250° |
| 2026-04-28 17:17 | 42.44475 | 20.51609 | 17828 ft | 397 kts | 249° |
| 2026-04-28 17:17 | 42.43504 | 20.48090 | 18370 ft | 401 kts | 249° |
| 2026-04-28 17:17 | 42.42524 | 20.44547 | 18915 ft | 404 kts | 249° |
| 2026-04-28 17:18 | 42.41535 | 20.40964 | 19440 ft | 407 kts | 249° |
| 2026-04-28 17:18 | 42.40539 | 20.37355 | 19946 ft | 410 kts | 249° |
| 2026-04-28 17:18 | 42.39538 | 20.33728 | 20433 ft | 413 kts | 249° |
| 2026-04-28 17:18 | 42.38526 | 20.30068 | 20906 ft | 416 kts | 249° |
| 2026-04-28 17:19 | 42.37506 | 20.26388 | 21363 ft | 419 kts | 249° |
| 2026-04-28 17:19 | 42.36479 | 20.22685 | 21801 ft | 422 kts | 249° |
| 2026-04-28 17:19 | 42.35462 | 20.18942 | 22227 ft | 425 kts | 252° |
| 2026-04-28 17:19 | 42.34771 | 20.15044 | 22649 ft | 428 kts | 259° |
| 2026-04-28 17:20 | 42.34213 | 20.11086 | 23062 ft | 430 kts | 259° |
| 2026-04-28 17:20 | 42.33838 | 20.08445 | 23323 ft | 432 kts | 259° |
| 2026-04-28 17:20 | 42.33070 | 20.03092 | 23835 ft | 435 kts | 259° |
| 2026-04-28 17:20 | 42.32491 | 19.99062 | 24209 ft | 438 kts | 259° |
| 2026-04-28 17:21 | 42.31907 | 19.95014 | 24585 ft | 440 kts | 259° |
| 2026-04-28 17:21 | 42.31318 | 19.90943 | 24947 ft | 443 kts | 258° |
| 2026-04-28 17:21 | 42.30722 | 19.86846 | 25291 ft | 445 kts | 258° |
| 2026-04-28 17:22 | 42.29520 | 19.78599 | 25969 ft | 450 kts | 258° |
| 2026-04-28 17:22 | 42.28912 | 19.74444 | 26288 ft | 452 kts | 258° |
| 2026-04-28 17:22 | 42.28301 | 19.70273 | 26606 ft | 454 kts | 258° |
| 2026-04-28 17:23 | 42.27065 | 19.61866 | 27196 ft | 458 kts | 258° |
| 2026-04-28 17:23 | 42.26440 | 19.57632 | 27489 ft | 460 kts | 258° |
| 2026-04-28 17:23 | 42.25808 | 19.53389 | 27775 ft | 462 kts | 258° |
| 2026-04-28 17:23 | 42.25169 | 19.49116 | 28051 ft | 464 kts | 258° |
| 2026-04-28 17:24 | 42.24612 | 19.44817 | 28310 ft | 466 kts | 265° |
| 2026-04-28 17:24 | 42.24665 | 19.40431 | 28563 ft | 469 kts | 277° |
| 2026-04-28 17:24 | 42.25434 | 19.36211 | 28826 ft | 470 kts | 290° |
| 2026-04-28 17:24 | 42.26910 | 19.32284 | 29180 ft | 470 kts | 303° |
| 2026-04-28 17:25 | 42.28993 | 19.28890 | 29538 ft | 469 kts | 316° |
| 2026-04-28 17:25 | 42.34340 | 19.23869 | 30232 ft | 469 kts | 328° |
| 2026-04-28 17:25 | 42.37109 | 19.21550 | 30576 ft | 468 kts | 328° |
| 2026-04-28 17:26 | 42.39876 | 19.19234 | 30926 ft | 467 kts | 328° |
| 2026-04-28 17:26 | 42.42639 | 19.16922 | 31266 ft | 467 kts | 328° |
| 2026-04-28 17:26 | 42.45398 | 19.14610 | 31603 ft | 466 kts | 328° |
| 2026-04-28 17:26 | 42.48148 | 19.12294 | 31935 ft | 465 kts | 328° |
| 2026-04-28 17:27 | 42.50890 | 19.09974 | 32280 ft | 464 kts | 327° |
| 2026-04-28 17:27 | 42.53627 | 19.07652 | 32609 ft | 464 kts | 327° |
| 2026-04-28 17:27 | 42.56363 | 19.05334 | 32930 ft | 463 kts | 328° |
| 2026-04-28 17:27 | 42.59094 | 19.03023 | 33245 ft | 463 kts | 328° |
| 2026-04-28 17:28 | 42.61822 | 19.00711 | 33571 ft | 462 kts | 328° |
| 2026-04-28 17:28 | 42.67267 | 18.96095 | 34198 ft | 461 kts | 328° |
| 2026-04-28 17:28 | 42.69984 | 18.93790 | 34509 ft | 460 kts | 328° |
| 2026-04-28 17:29 | 42.72733 | 18.91453 | 34816 ft | 459 kts | 327° |
| 2026-04-28 17:29 | 42.75438 | 18.89149 | 35106 ft | 459 kts | 327° |
| 2026-04-28 17:29 | 42.78145 | 18.86840 | 35386 ft | 458 kts | 327° |
| 2026-04-28 17:30 | 42.83509 | 18.82265 | 35905 ft | 457 kts | 327° |
| 2026-04-28 17:30 | 42.88906 | 18.77652 | 36009 ft | 458 kts | 327° |
| 2026-04-28 17:30 | 42.91644 | 18.75302 | 36008 ft | 458 kts | 327° |
| 2026-04-28 17:31 | 42.99705 | 18.68382 | 36008 ft | 458 kts | 327° |
| 2026-04-28 17:32 | 43.07797 | 18.61414 | 36008 ft | 458 kts | 327° |
| 2026-04-28 17:32 | 43.13223 | 18.56729 | 36011 ft | 458 kts | 327° |
| 2026-04-28 17:33 | 43.18473 | 18.51804 | 36008 ft | 458 kts | 323° |
| 2026-04-28 17:33 | 43.21842 | 18.48307 | 36004 ft | 458 kts | 322° |
| 2026-04-28 17:34 | 43.28579 | 18.41160 | 36003 ft | 458 kts | 322° |
| 2026-04-28 17:34 | 43.33667 | 18.35900 | 36001 ft | 457 kts | 323° |
| 2026-04-28 17:35 | 43.38772 | 18.30684 | 36000 ft | 457 kts | 323° |
| 2026-04-28 17:35 | 43.43875 | 18.25450 | 36002 ft | 457 kts | 323° |
| 2026-04-28 17:36 | 43.48103 | 18.21076 | 36001 ft | 457 kts | 322° |
| 2026-04-28 17:36 | 43.53183 | 18.15795 | 35999 ft | 457 kts | 322° |
| 2026-04-28 17:37 | 43.58264 | 18.10514 | 35997 ft | 457 kts | 322° |
| 2026-04-28 17:37 | 43.63347 | 18.05235 | 35999 ft | 457 kts | 322° |
| 2026-04-28 17:38 | 43.68427 | 17.99939 | 35996 ft | 457 kts | 322° |
| 2026-04-28 17:38 | 43.73505 | 17.94627 | 35999 ft | 457 kts | 322° |
| 2026-04-28 17:39 | 43.78581 | 17.89310 | 35997 ft | 458 kts | 322° |
| 2026-04-28 17:40 | 43.86202 | 17.81313 | 35999 ft | 458 kts | 322° |
| 2026-04-28 17:40 | 43.91239 | 17.76011 | 36004 ft | 458 kts | 322° |
| 2026-04-28 17:41 | 43.96313 | 17.70657 | 36001 ft | 458 kts | 322° |
| 2026-04-28 17:41 | 44.01383 | 17.65291 | 36002 ft | 458 kts | 322° |
| 2026-04-28 17:42 | 44.06444 | 17.59917 | 36004 ft | 458 kts | 322° |
| 2026-04-28 17:42 | 44.11515 | 17.54536 | 36005 ft | 458 kts | 322° |
| 2026-04-28 17:43 | 44.16588 | 17.49144 | 36007 ft | 458 kts | 322° |
| 2026-04-28 17:43 | 44.21655 | 17.43745 | 36012 ft | 458 kts | 322° |
| 2026-04-28 17:44 | 44.26720 | 17.38334 | 36011 ft | 458 kts | 322° |
| 2026-04-28 17:44 | 44.31781 | 17.32909 | 36011 ft | 458 kts | 322° |
| 2026-04-28 17:45 | 44.36836 | 17.27475 | 36012 ft | 458 kts | 322° |
| 2026-04-28 17:45 | 44.41883 | 17.22039 | 36010 ft | 458 kts | 322° |
| 2026-04-28 17:46 | 44.46901 | 17.16621 | 36010 ft | 458 kts | 322° |
| 2026-04-28 17:46 | 44.51982 | 17.11127 | 36011 ft | 458 kts | 322° |
| 2026-04-28 17:47 | 44.57026 | 17.05661 | 36010 ft | 458 kts | 322° |
| 2026-04-28 17:47 | 44.62040 | 17.00225 | 36009 ft | 458 kts | 322° |
| 2026-04-28 17:48 | 44.67112 | 16.94700 | 36009 ft | 458 kts | 322° |
| 2026-04-28 17:48 | 44.72140 | 16.89206 | 36008 ft | 458 kts | 322° |
| 2026-04-28 17:49 | 44.77169 | 16.83703 | 36008 ft | 458 kts | 322° |
| 2026-04-28 17:49 | 44.82195 | 16.78185 | 36005 ft | 458 kts | 322° |
| 2026-04-28 17:50 | 44.87217 | 16.72682 | 36006 ft | 458 kts | 322° |
| 2026-04-28 17:50 | 44.92240 | 16.67150 | 36004 ft | 458 kts | 321° |
| 2026-04-28 17:51 | 44.97264 | 16.61599 | 36007 ft | 458 kts | 321° |
| 2026-04-28 17:51 | 45.02287 | 16.56049 | 36014 ft | 458 kts | 321° |
| 2026-04-28 17:52 | 45.07309 | 16.50490 | 36013 ft | 459 kts | 321° |
| 2026-04-28 17:52 | 45.14804 | 16.42051 | 36015 ft | 459 kts | 319° |
| 2026-04-28 17:53 | 45.19589 | 16.36077 | 36017 ft | 459 kts | 317° |
| 2026-04-28 17:53 | 45.24290 | 16.29957 | 36017 ft | 458 kts | 317° |
| 2026-04-28 17:54 | 45.29018 | 16.23876 | 36016 ft | 458 kts | 317° |
| 2026-04-28 17:54 | 45.33776 | 16.17854 | 36014 ft | 458 kts | 318° |
| 2026-04-28 17:55 | 45.38540 | 16.11830 | 36011 ft | 458 kts | 318° |